createdAt,value
2019-05-29T00:00:31.081Z,72.34
2019-05-29T00:03:03.099Z,72.69
2019-05-29T00:05:35.047Z,72.57
2019-05-29T00:08:08.114Z,72.97
2019-05-29T00:10:41.193Z,73.16
2019-05-29T00:13:14.386Z,73.22
2019-05-29T00:15:46.503Z,73.25
2019-05-29T00:18:18.672Z,73.23
2019-05-29T00:20:50.684Z,72.76
2019-05-29T00:23:22.657Z,72.99
2019-05-29T00:25:54.633Z,73.52
2019-05-29T00:28:26.601Z,73.46
2019-05-29T00:30:58.560Z,73.55
2019-05-29T00:33:30.598Z,73.84
2019-05-29T00:36:02.585Z,74.11
2019-05-29T00:38:34.566Z,74.67
2019-05-29T00:41:06.775Z,74.43
2019-05-29T00:43:38.790Z,73.97
2019-05-29T00:46:11.388Z,74.07
2019-05-29T00:48:43.421Z,73.91
2019-05-29T00:51:15.357Z,74.25
2019-05-29T00:53:47.359Z,74.43
2019-05-29T00:56:19.281Z,74.54
2019-05-29T00:58:51.246Z,74.17
2019-05-29T01:01:23.183Z,73.61
2019-05-29T01:03:55.155Z,73.80
2019-05-29T01:06:27.116Z,74.21
2019-05-29T01:08:59.103Z,74.05
2019-05-29T01:11:31.057Z,74.67
2019-05-29T01:14:03.173Z,74.75
2019-05-29T01:16:35.139Z,74.88
2019-05-29T01:19:25.459Z,74.92
2019-05-29T01:21:57.596Z,75.00
2019-05-29T01:24:29.767Z,74.90
2019-05-29T01:27:01.738Z,74.37
2019-05-29T01:29:33.683Z,74.78
2019-05-29T01:32:05.620Z,74.65
2019-05-29T01:34:37.611Z,75.11
2019-05-29T01:37:09.594Z,75.21
2019-05-29T01:39:41.553Z,75.13
2019-05-29T01:42:13.518Z,74.82
2019-05-29T01:44:45.473Z,74.87
2019-05-29T01:47:17.477Z,75.20
2019-05-29T01:49:49.431Z,75.36
2019-05-29T01:52:21.896Z,75.30
2019-05-29T01:54:55.439Z,75.52
2019-05-29T01:57:28.021Z,76.06
2019-05-29T02:00:00.069Z,75.62
2019-05-29T02:02:32.043Z,75.62
2019-05-29T02:05:04.172Z,75.00
2019-05-29T02:07:36.150Z,75.00
2019-05-29T02:10:08.216Z,75.26
2019-05-29T02:12:40.181Z,75.94
2019-05-29T02:15:23.733Z,75.75
2019-05-29T02:17:46.306Z,75.61
2019-05-29T02:20:19.131Z,75.40
2019-05-29T02:22:51.059Z,75.40
2019-05-29T02:25:24.246Z,75.46
2019-05-29T02:27:56.689Z,75.07
2019-05-29T02:30:30.898Z,75.06
2019-05-29T02:33:02.564Z,75.39
2019-05-29T02:35:34.505Z,75.57
2019-05-29T02:38:06.465Z,75.65
2019-05-29T02:40:38.415Z,75.50
2019-05-29T02:43:10.384Z,75.67
2019-05-29T02:45:53.766Z,75.58
2019-05-29T02:48:16.190Z,75.71
2019-05-29T02:50:48.153Z,76.09
2019-05-29T02:53:20.237Z,76.06
2019-05-29T02:55:52.164Z,75.87
2019-05-29T02:58:25.817Z,76.04
2019-05-29T03:00:58.010Z,75.84
2019-05-29T03:03:37.977Z,75.62
2019-05-29T03:06:04.103Z,75.62
2019-05-29T03:08:36.082Z,76.41
2019-05-29T03:11:08.061Z,76.41
2019-05-29T03:13:40.064Z,75.61
2019-05-29T03:16:13.051Z,75.96
2019-05-29T03:18:45.379Z,75.80
2019-05-29T03:21:17.321Z,76.08
2019-05-29T03:23:49.296Z,76.35
2019-05-29T03:26:24.739Z,76.23
2019-05-29T03:28:55.146Z,75.95
2019-05-29T03:31:30.959Z,75.95
2019-05-29T03:34:01.032Z,76.32
2019-05-29T03:36:39.290Z,76.32
2019-05-29T03:39:06.856Z,76.29
2019-05-29T03:41:39.179Z,76.31
2019-05-29T03:44:11.224Z,75.93
2019-05-29T03:46:45.955Z,75.49
2019-05-29T03:49:17.097Z,75.52
2019-05-29T03:51:49.037Z,75.53
2019-05-29T03:54:21.067Z,75.59
2019-05-29T03:56:52.999Z,76.32
2019-05-29T03:59:26.581Z,76.42
2019-05-29T04:01:58.725Z,76.42
2019-05-29T04:04:31.359Z,76.88
2019-05-29T04:07:03.858Z,76.54
2019-05-29T04:09:37.272Z,76.54
2019-05-29T04:12:10.545Z,76.85
2019-05-29T04:14:42.501Z,76.85
2019-05-29T04:17:14.576Z,76.71
2019-05-29T04:19:46.567Z,75.95
2019-05-29T04:22:21.960Z,75.79
2019-05-29T04:24:54.217Z,75.91
2019-05-29T04:27:27.860Z,75.49
2019-05-29T04:30:01.825Z,75.56
2019-05-29T04:32:34.247Z,75.30
2019-05-29T04:35:06.802Z,75.04
2019-05-29T04:37:39.795Z,75.44
2019-05-29T04:40:12.101Z,74.81
2019-05-29T04:42:44.025Z,74.72
2019-05-29T04:45:16.036Z,74.26
2019-05-29T04:47:47.990Z,74.87
2019-05-29T04:50:20.055Z,74.81
2019-05-29T04:52:52.044Z,74.73
2019-05-29T04:55:24.029Z,75.19
2019-05-29T04:57:56.012Z,75.26
2019-05-29T05:00:29.036Z,75.21
2019-05-29T05:03:01.048Z,75.44
2019-05-29T05:05:33.296Z,74.81
2019-05-29T05:08:05.257Z,74.06
2019-05-29T05:10:41.026Z,73.79
2019-05-29T05:13:12.772Z,73.59
2019-05-29T05:15:45.943Z,73.29
2019-05-29T05:18:18.026Z,73.14
2019-05-29T05:20:49.985Z,73.34
2019-05-29T05:23:21.953Z,73.24
2019-05-29T05:25:53.920Z,73.51
2019-05-29T05:28:25.863Z,73.15
2019-05-29T05:30:57.898Z,73.21
2019-05-29T05:33:30.413Z,72.92
2019-05-29T05:36:02.486Z,72.34
2019-05-29T05:38:34.711Z,72.68
2019-05-29T05:41:06.787Z,72.93
2019-05-29T05:43:39.026Z,72.73
2019-05-29T05:46:11.148Z,72.55
2019-05-29T05:48:43.074Z,71.76
2019-05-29T05:51:15.048Z,71.46
2019-05-29T05:53:47.058Z,71.78
2019-05-29T05:56:19.012Z,71.48
2019-05-29T05:58:51.010Z,71.71
2019-05-29T06:01:22.952Z,71.73
2019-05-29T06:03:54.968Z,71.07
2019-05-29T06:06:26.903Z,69.80
2019-05-29T06:08:58.862Z,69.39
2019-05-29T06:11:32.084Z,69.47
2019-05-29T06:14:04.253Z,69.83
2019-05-29T06:16:36.483Z,69.78
2019-05-29T06:19:08.582Z,69.57
2019-05-29T06:21:41.161Z,69.68
2019-05-29T06:24:13.131Z,69.09
2019-05-29T06:26:45.084Z,68.53
2019-05-29T06:29:17.044Z,67.60
2019-05-29T06:31:49.018Z,67.18
2019-05-29T06:34:20.986Z,67.19
2019-05-29T06:36:52.954Z,67.39
2019-05-29T06:39:24.948Z,67.47
2019-05-29T06:41:56.902Z,66.32
2019-05-29T06:44:28.870Z,67.04
2019-05-29T06:47:00.826Z,66.99
2019-05-29T06:49:33.839Z,66.71
2019-05-29T06:52:09.115Z,66.61
2019-05-29T06:54:40.066Z,66.39
2019-05-29T06:57:12.043Z,65.85
2019-05-29T06:59:44.746Z,65.91
2019-05-29T07:02:16.799Z,65.86
2019-05-29T07:04:48.794Z,65.68
2019-05-29T07:07:20.733Z,66.28
2019-05-29T07:09:52.702Z,66.79
2019-05-29T07:12:24.680Z,66.93
2019-05-29T07:14:56.645Z,64.28
2019-05-29T07:17:28.594Z,64.71
2019-05-29T07:20:03.951Z,63.35
2019-05-29T07:22:34.486Z,63.35
2019-05-29T07:25:06.453Z,63.48
2019-05-29T07:27:38.810Z,63.38
2019-05-29T07:30:11.176Z,64.33
2019-05-29T07:32:49.586Z,62.69
2019-05-29T07:35:17.007Z,63.13
2019-05-29T07:37:48.977Z,63.60
2019-05-29T07:40:21.237Z,63.07
2019-05-29T07:42:56.456Z,62.74
2019-05-29T07:45:27.076Z,62.86
2019-05-29T07:47:59.043Z,61.23
2019-05-29T07:50:31.053Z,61.02
2019-05-29T07:53:03.027Z,59.86
2019-05-29T07:55:35.014Z,56.22
2019-05-29T07:58:06.961Z,56.08
2019-05-29T08:01:02.640Z,56.08
2019-05-29T08:03:12.787Z,55.37
2019-05-29T08:05:47.959Z,53.05
2019-05-29T08:08:18.676Z,53.15
2019-05-29T08:10:50.682Z,53.32
2019-05-29T08:13:22.635Z,53.35
2019-05-29T08:16:02.768Z,53.66
2019-05-29T08:18:28.506Z,52.57
2019-05-29T08:21:00.510Z,51.20
2019-05-29T08:23:32.481Z,51.75
2019-05-29T08:26:04.460Z,52.08
2019-05-29T08:28:36.410Z,52.79
2019-05-29T08:31:08.410Z,50.76
2019-05-29T08:33:40.805Z,51.87
2019-05-29T08:36:12.916Z,51.95
2019-05-29T08:38:45.798Z,51.83
2019-05-29T08:41:17.951Z,53.18
2019-05-29T08:43:50.785Z,52.20
2019-05-29T08:46:22.891Z,51.40
2019-05-29T08:48:54.869Z,52.06
2019-05-29T08:51:26.910Z,52.45
2019-05-29T08:53:58.871Z,51.97
2019-05-29T08:56:30.879Z,52.66
2019-05-29T08:59:02.955Z,53.18
2019-05-29T09:01:34.966Z,53.98
2019-05-29T09:04:06.998Z,53.46
2019-05-29T09:06:39.121Z,53.56
2019-05-29T09:09:11.103Z,53.97
2019-05-29T09:11:43.108Z,54.61
2019-05-29T09:14:15.082Z,54.80
2019-05-29T09:16:47.044Z,55.30
2019-05-29T09:19:21.099Z,54.81
2019-05-29T09:21:52.907Z,54.96
2019-05-29T09:24:24.879Z,54.83
2019-05-29T09:26:56.883Z,54.78
2019-05-29T09:29:28.867Z,54.53
2019-05-29T09:32:00.831Z,55.17
2019-05-29T09:34:32.808Z,54.45
2019-05-29T09:37:04.792Z,53.79
2019-05-29T09:39:36.766Z,53.20
2019-05-29T09:42:08.739Z,52.08
2019-05-29T09:44:40.709Z,52.90
2019-05-29T09:47:12.655Z,52.87
2019-05-29T09:49:44.657Z,53.52
2019-05-29T09:52:16.625Z,53.51
2019-05-29T09:54:48.638Z,52.76
2019-05-29T09:57:20.616Z,52.37
2019-05-29T09:59:53.786Z,51.34
2019-05-29T10:02:26.397Z,51.49
2019-05-29T10:05:00.491Z,50.93
2019-05-29T10:07:32.259Z,50.98
2019-05-29T10:10:05.303Z,51.04
2019-05-29T10:12:37.312Z,51.46
2019-05-29T10:15:09.738Z,51.06
2019-05-29T10:17:41.727Z,51.02
2019-05-29T10:20:14.526Z,50.67
2019-05-29T10:22:46.462Z,50.55
2019-05-29T10:25:18.537Z,49.83
2019-05-29T10:27:50.486Z,48.86
2019-05-29T10:30:24.297Z,48.87
2019-05-29T10:32:56.284Z,48.10
2019-05-29T10:35:28.292Z,49.23
2019-05-29T10:38:00.270Z,49.59
2019-05-29T10:40:32.290Z,49.01
2019-05-29T10:43:04.297Z,49.37
2019-05-29T10:45:36.372Z,47.30
2019-05-29T10:48:08.359Z,48.37
2019-05-29T10:50:40.400Z,49.03
2019-05-29T10:53:12.382Z,47.49
2019-05-29T10:55:44.495Z,45.24
2019-05-29T10:58:16.455Z,43.99
2019-05-29T11:00:49.125Z,44.98
2019-05-29T11:03:21.112Z,43.75
2019-05-29T11:05:53.782Z,43.66
2019-05-29T11:08:25.780Z,45.12
2019-05-29T11:10:57.785Z,44.67
2019-05-29T11:13:29.735Z,43.29
2019-05-29T11:16:01.720Z,44.71
2019-05-29T11:18:33.763Z,46.88
2019-05-29T11:21:05.949Z,46.11
2019-05-29T11:23:37.978Z,45.56
2019-05-29T11:26:10.097Z,47.74
2019-05-29T11:28:42.083Z,45.50
2019-05-29T11:31:14.206Z,44.08
2019-05-29T11:33:46.255Z,45.10
2019-05-29T11:36:18.443Z,44.33
2019-05-29T11:38:50.577Z,45.17
2019-05-29T11:41:26.233Z,45.24
2019-05-29T11:43:56.867Z,44.98
2019-05-29T11:46:28.945Z,44.96
2019-05-29T11:49:00.943Z,45.62
2019-05-29T11:51:33.092Z,44.11
2019-05-29T11:54:05.081Z,44.01
2019-05-29T11:56:37.075Z,44.21
2019-05-29T11:59:09.072Z,44.38
2019-05-29T12:01:50.173Z,45.42
2019-05-29T12:04:25.401Z,45.12
2019-05-29T12:06:48.839Z,46.00
2019-05-29T12:09:32.316Z,47.30
2019-05-29T12:11:55.982Z,47.54
2019-05-29T12:14:28.287Z,45.87
2019-05-29T12:17:00.640Z,45.34
2019-05-29T12:19:32.811Z,42.43
2019-05-29T12:22:04.788Z,43.56
2019-05-29T12:24:36.758Z,43.65
2019-05-29T12:27:08.759Z,45.50
2019-05-29T12:29:40.788Z,45.47
2019-05-29T12:32:13.044Z,43.67
2019-05-29T12:34:53.729Z,44.22
2019-05-29T12:37:19.134Z,43.00
2019-05-29T12:39:51.202Z,43.71
2019-05-29T12:42:23.175Z,44.92
2019-05-29T12:44:55.462Z,45.74
2019-05-29T12:47:27.794Z,45.52
2019-05-29T12:50:00.642Z,44.96
2019-05-29T12:52:33.710Z,44.68
2019-05-29T12:55:05.893Z,46.44
2019-05-29T12:57:37.888Z,46.82
2019-05-29T13:00:11.363Z,48.43
2019-05-29T13:02:43.387Z,48.41
2019-05-29T13:05:20.097Z,46.65
2019-05-29T13:07:49.485Z,45.43
2019-05-29T13:10:30.678Z,46.41
2019-05-29T13:13:02.421Z,47.35
2019-05-29T13:15:29.867Z,48.48
2019-05-29T13:18:06.254Z,49.36
2019-05-29T13:20:35.765Z,50.32
2019-05-29T13:23:08.589Z,50.71
2019-05-29T13:25:40.578Z,51.46
2019-05-29T13:28:12.604Z,51.07
2019-05-29T13:30:44.640Z,51.74
2019-05-29T13:33:16.689Z,51.85
2019-05-29T13:35:48.667Z,51.11
2019-05-29T13:38:20.635Z,50.45
2019-05-29T13:40:52.665Z,49.67
2019-05-29T13:43:24.674Z,50.35
2019-05-29T13:45:56.718Z,51.06
2019-05-29T13:48:28.718Z,51.16
2019-05-29T13:51:01.695Z,51.08
2019-05-29T13:53:33.795Z,51.48
2019-05-29T13:56:06.201Z,51.66
2019-05-29T13:58:38.260Z,52.33
2019-05-29T14:01:10.265Z,52.34
2019-05-29T14:03:42.251Z,52.55
2019-05-29T14:06:14.260Z,53.71
2019-05-29T14:08:46.283Z,59.90
2019-05-29T14:11:18.284Z,65.34
2019-05-29T14:13:50.311Z,66.66
2019-05-29T14:16:25.406Z,69.54
2019-05-29T14:18:57.433Z,70.62
2019-05-29T14:21:29.473Z,72.08
2019-05-29T14:24:02.791Z,73.00
2019-05-29T14:26:35.397Z,72.98
2019-05-29T14:29:07.611Z,73.58
2019-05-29T14:31:39.846Z,74.22
2019-05-29T14:34:11.833Z,74.39
2019-05-29T14:36:43.967Z,74.62
2019-05-29T14:39:16.024Z,73.79
2019-05-29T14:41:48.011Z,73.24
2019-05-29T14:44:20.008Z,73.90
2019-05-29T14:46:52.021Z,73.54
2019-05-29T14:49:26.939Z,73.61
2019-05-29T14:51:59.203Z,73.44
2019-05-29T14:54:41.403Z,74.61
2019-05-29T14:57:17.474Z,75.11
2019-05-29T14:59:39.135Z,74.45
2019-05-29T15:02:19.856Z,74.27
2019-05-29T15:04:45.003Z,74.49
2019-05-29T15:07:17.006Z,74.77
2019-05-29T15:09:49.110Z,75.00
2019-05-29T15:12:21.099Z,74.78
2019-05-29T15:14:53.182Z,75.06
2019-05-29T15:17:25.175Z,75.61
2019-05-29T15:19:57.204Z,76.06
2019-05-29T15:22:29.190Z,76.17
2019-05-29T15:25:11.507Z,75.37
2019-05-29T15:27:35.107Z,75.60
2019-05-29T15:30:08.756Z,75.49
2019-05-29T15:32:41.231Z,75.88
2019-05-29T15:35:17.613Z,76.53
2019-05-29T15:37:47.524Z,76.29
2019-05-29T15:40:19.549Z,76.75
2019-05-29T15:42:51.586Z,74.58
2019-05-29T15:45:23.723Z,75.65
2019-05-29T15:47:55.729Z,76.11
2019-05-29T15:50:27.747Z,75.97
2019-05-29T15:52:59.789Z,75.85
2019-05-29T15:55:34.744Z,75.89
2019-05-29T15:58:07.128Z,75.51
2019-05-29T16:00:39.407Z,74.66
2019-05-29T16:03:11.568Z,76.05
2019-05-29T16:05:43.642Z,76.21
2019-05-29T16:08:16.095Z,76.10
2019-05-29T16:10:48.273Z,76.20
2019-05-29T16:13:20.280Z,77.00
2019-05-29T16:15:52.306Z,77.81
2019-05-29T16:18:29.217Z,78.25
2019-05-29T16:20:58.279Z,78.92
2019-05-29T16:23:35.896Z,78.98
2019-05-29T16:26:04.242Z,79.09
2019-05-29T16:28:36.396Z,79.25
2019-05-29T16:31:08.468Z,79.77
2019-05-29T16:33:40.500Z,79.34
2019-05-29T16:36:12.690Z,79.84
2019-05-29T16:38:44.734Z,79.83
2019-05-29T16:41:17.935Z,79.66
2019-05-29T16:43:50.085Z,79.16
2019-05-29T16:46:24.060Z,78.25
2019-05-29T16:48:55.984Z,78.32
2019-05-29T16:51:28.138Z,77.74
2019-05-29T16:54:00.137Z,77.76
2019-05-29T16:56:32.185Z,77.90
2019-05-29T16:59:04.200Z,78.43
2019-05-29T17:01:36.226Z,78.44
2019-05-29T17:04:08.241Z,78.58
2019-05-29T17:06:40.245Z,78.68
2019-05-29T17:09:12.236Z,78.54
2019-05-29T17:11:44.261Z,78.03
2019-05-29T17:14:16.492Z,78.22
2019-05-29T17:16:48.585Z,78.51
2019-05-29T17:19:20.737Z,78.39
2019-05-29T17:21:52.752Z,77.95
2019-05-29T17:24:25.104Z,78.11
2019-05-29T17:26:57.189Z,78.13
2019-05-29T17:29:29.204Z,77.92
2019-05-29T17:32:01.441Z,77.64
2019-05-29T17:34:33.700Z,77.89
2019-05-29T17:37:05.795Z,77.47
2019-05-29T17:39:37.754Z,77.75
2019-05-29T17:42:09.795Z,77.70
2019-05-29T17:44:41.792Z,77.35
2019-05-29T17:47:13.789Z,77.11
2019-05-29T17:49:45.790Z,77.39
2019-05-29T17:52:17.847Z,77.50
2019-05-29T17:54:49.827Z,77.36
2019-05-29T17:57:22.068Z,77.57
2019-05-29T17:59:54.200Z,77.72
2019-05-29T18:02:26.425Z,77.50
2019-05-29T18:04:58.435Z,77.84
2019-05-29T18:07:30.503Z,77.88
2019-05-29T18:10:02.648Z,77.59
2019-05-29T18:12:34.680Z,77.10
2019-05-29T18:15:07.429Z,77.51
2019-05-29T18:17:39.490Z,77.45
2019-05-29T18:20:14.510Z,76.60
2019-05-29T18:22:45.433Z,77.29
2019-05-29T18:25:18.154Z,77.76
2019-05-29T18:27:50.242Z,77.61
2019-05-29T18:30:24.378Z,78.34
2019-05-29T18:32:56.604Z,77.90
2019-05-29T18:35:29.064Z,76.98
2019-05-29T18:38:01.221Z,77.18
2019-05-29T18:40:33.240Z,77.56
2019-05-29T18:43:05.340Z,77.37
2019-05-29T18:45:37.417Z,77.50
2019-05-29T18:48:09.481Z,77.35
2019-05-29T18:50:44.241Z,77.37
2019-05-29T18:53:15.545Z,77.38
2019-05-29T18:55:47.585Z,77.52
2019-05-29T18:58:19.686Z,77.69
2019-05-29T19:00:51.749Z,78.19
2019-05-29T19:03:23.796Z,77.94
2019-05-29T19:05:55.814Z,77.74
2019-05-29T19:08:27.876Z,78.02
2019-05-29T19:10:59.932Z,78.77
2019-05-29T19:13:32.136Z,79.67
2019-05-29T19:16:04.528Z,79.67
2019-05-29T19:18:36.548Z,79.78
2019-05-29T19:21:08.610Z,80.02
2019-05-29T19:23:40.636Z,80.35
2019-05-29T19:26:12.721Z,80.55
2019-05-29T19:28:44.786Z,80.29
2019-05-29T19:31:16.851Z,79.98
2019-05-29T19:33:48.849Z,80.05
2019-05-29T19:36:20.927Z,80.73
2019-05-29T19:38:53.013Z,80.51
2019-05-29T19:41:25.765Z,80.42
2019-05-29T19:43:57.861Z,80.83
2019-05-29T19:46:31.074Z,81.10
2019-05-29T19:49:03.673Z,81.16
2019-05-29T19:51:35.833Z,80.55
2019-05-29T19:54:07.813Z,81.24
2019-05-29T19:56:39.835Z,81.50
2019-05-29T19:59:11.859Z,81.08
2019-05-29T20:01:43.902Z,81.43
2019-05-29T20:04:15.930Z,81.46
2019-05-29T20:06:48.000Z,82.07
2019-05-29T20:09:19.995Z,82.68
2019-05-29T20:11:52.054Z,82.95
2019-05-29T20:14:24.084Z,82.95
2019-05-29T20:16:56.233Z,82.87
2019-05-29T20:19:30.392Z,82.74
2019-05-29T20:22:02.294Z,82.43
2019-05-29T20:24:34.982Z,82.54
2019-05-29T20:27:07.050Z,82.02
2019-05-29T20:29:39.107Z,82.08
2019-05-29T20:32:11.135Z,81.44
2019-05-29T20:34:43.525Z,81.44
2019-05-29T20:37:15.631Z,81.37
2019-05-29T20:39:47.651Z,80.91
2019-05-29T20:42:19.671Z,80.51
2019-05-29T20:44:51.741Z,80.86
2019-05-29T20:47:23.854Z,81.03
2019-05-29T20:49:56.380Z,81.31
2019-05-29T20:52:28.415Z,81.32
2019-05-29T20:55:00.471Z,81.72
2019-05-29T20:57:33.778Z,81.95
2019-05-29T21:00:07.425Z,82.09
2019-05-29T21:02:40.432Z,81.50
2019-05-29T21:05:12.799Z,81.64
2019-05-29T21:07:44.899Z,81.53
2019-05-29T21:10:18.501Z,81.79
2019-05-29T21:12:50.624Z,82.25
2019-05-29T21:15:22.641Z,82.79
2019-05-29T21:17:54.688Z,83.12
2019-05-29T21:20:29.095Z,83.10
2019-05-29T21:23:00.611Z,82.76
2019-05-29T21:25:32.711Z,82.65
2019-05-29T21:28:05.321Z,82.98
2019-05-29T21:30:37.527Z,82.95
2019-05-29T21:33:12.500Z,83.17
2019-05-29T21:35:44.598Z,83.35
2019-05-29T21:38:16.658Z,82.72
2019-05-29T21:40:48.680Z,82.77
2019-05-29T21:43:20.691Z,82.94
2019-05-29T21:45:52.722Z,82.58
2019-05-29T21:48:24.777Z,82.46
2019-05-29T21:50:56.832Z,82.72
2019-05-29T21:53:28.851Z,83.20
2019-05-29T21:56:00.835Z,83.43
2019-05-29T21:58:32.872Z,83.51
2019-05-29T22:01:04.894Z,83.43
2019-05-29T22:03:38.246Z,83.53
2019-05-29T22:06:10.432Z,83.72
2019-05-29T22:08:42.841Z,83.34
2019-05-29T22:11:15.146Z,83.67
2019-05-29T22:13:47.108Z,83.62
2019-05-29T22:16:19.154Z,83.07
2019-05-29T22:18:51.119Z,82.48
2019-05-29T22:21:23.139Z,82.88
2019-05-29T22:23:55.176Z,83.69
2019-05-29T22:26:27.080Z,83.76
2019-05-29T22:29:16.699Z,83.59
2019-05-29T22:31:32.980Z,83.82
2019-05-29T22:34:04.982Z,84.11
2019-05-29T22:36:36.986Z,84.02
2019-05-29T22:39:08.970Z,83.72
2019-05-29T22:41:40.964Z,82.85
2019-05-29T22:44:12.952Z,81.95
2019-05-29T22:46:44.937Z,82.41
2019-05-29T22:49:16.927Z,82.35
2019-05-29T22:51:48.930Z,82.05
2019-05-29T22:54:20.910Z,83.75
2019-05-29T22:56:53.985Z,83.11
2019-05-29T22:59:31.804Z,83.49
2019-05-29T23:02:00.340Z,83.47
2019-05-29T23:04:32.440Z,83.50
2019-05-29T23:07:04.467Z,83.37
2019-05-29T23:09:36.435Z,84.94
2019-05-29T23:12:08.419Z,83.33
2019-05-29T23:14:40.353Z,83.55
2019-05-29T23:17:12.335Z,84.42
2019-05-29T23:19:44.303Z,84.82
2019-05-29T23:22:16.303Z,84.72
2019-05-29T23:24:48.273Z,83.93
2019-05-29T23:27:20.235Z,83.76
2019-05-29T23:29:52.704Z,83.75
2019-05-29T23:32:24.836Z,83.03
2019-05-29T23:34:57.149Z,83.09
2019-05-29T23:37:29.186Z,82.57
2019-05-29T23:40:01.323Z,81.97
2019-05-29T23:42:33.361Z,82.50
2019-05-29T23:45:05.582Z,83.19
2019-05-29T23:47:37.574Z,82.45
2019-05-29T23:50:09.846Z,82.24
2019-05-29T23:52:41.850Z,82.35
2019-05-29T23:55:13.857Z,82.58
2019-05-29T23:57:45.851Z,82.55
